DLH452 EDLW-EDDH
Flight info
| Callsign | DLH452 |
|---|---|
| Flight time | 0h 53m |
| Altitude | 23000 |
| Route | OSN2U OSN DCT BASUM DCT MUBZI DCT RIBSO RIBSO7A |
| Aircraft | A339/M-SDE2E3FGHIRWXY/LB1 |
Departure
| Time | 2026-04-20 15:02 |
|---|---|
| Airport | Dortmund Airport (EDLW) |
Arrival
| Time | 2026-04-20 15:56 |
|---|---|
| Airport | Hamburg Helmut Schmidt Airport (EDDH) |
| Time | Latitude | Longitude | Altitude | Speed | Heading |
|---|---|---|---|---|---|
| 2026-04-20 14:48 | 51.51423 | 7.60990 | 419 ft | 0 kts | 144° |
| 2026-04-20 14:54 | 51.51435 | 7.60976 | 417 ft | 3 kts | 144° |
| 2026-04-20 14:55 | 51.51453 | 7.60957 | 420 ft | 3 kts | 135° |
| 2026-04-20 14:55 | 51.51466 | 7.60930 | 417 ft | 3 kts | 79° |
| 2026-04-20 14:55 | 51.51467 | 7.60922 | 417 ft | 0 kts | 60° |
| 2026-04-20 14:57 | 51.51475 | 7.60948 | 417 ft | 11 kts | 66° |
| 2026-04-20 14:57 | 51.51496 | 7.61013 | 424 ft | 6 kts | 59° |
| 2026-04-20 14:58 | 51.51544 | 7.61050 | 424 ft | 8 kts | 4° |
| 2026-04-20 14:58 | 51.51593 | 7.61090 | 423 ft | 8 kts | 53° |
| 2026-04-20 14:58 | 51.51626 | 7.61184 | 417 ft | 11 kts | 59° |
| 2026-04-20 14:58 | 51.51670 | 7.61301 | 416 ft | 13 kts | 60° |
| 2026-04-20 14:59 | 51.51719 | 7.61445 | 415 ft | 16 kts | 61° |
| 2026-04-20 14:59 | 51.51777 | 7.61609 | 415 ft | 18 kts | 60° |
| 2026-04-20 14:59 | 51.51841 | 7.61791 | 412 ft | 20 kts | 60° |
| 2026-04-20 14:59 | 51.51909 | 7.61981 | 410 ft | 17 kts | 60° |
| 2026-04-20 15:00 | 51.51970 | 7.62153 | 414 ft | 19 kts | 60° |
| 2026-04-20 15:00 | 51.52037 | 7.62344 | 410 ft | 20 kts | 60° |
| 2026-04-20 15:00 | 51.52107 | 7.62543 | 405 ft | 20 kts | 60° |
| 2026-04-20 15:00 | 51.52136 | 7.62628 | 408 ft | 0 kts | 61° |
| 2026-04-20 15:01 | 51.52154 | 7.62676 | 406 ft | 12 kts | 60° |
| 2026-04-20 15:01 | 51.52218 | 7.62779 | 405 ft | 14 kts | 20° |
| 2026-04-20 15:01 | 51.52298 | 7.62723 | 412 ft | 13 kts | 323° |
| 2026-04-20 15:01 | 51.52316 | 7.62602 | 404 ft | 11 kts | 252° |
| 2026-04-20 15:02 | 51.52239 | 7.62374 | 408 ft | 58 kts | 240° |
| 2026-04-20 15:02 | 51.51883 | 7.61351 | 419 ft | 144 kts | 241° |
| 2026-04-20 15:02 | 51.51312 | 7.59702 | 698 ft | 186 kts | 243° |
| 2026-04-20 15:02 | 51.50674 | 7.57827 | 1553 ft | 196 kts | 245° |
| 2026-04-20 15:03 | 51.50016 | 7.55913 | 2583 ft | 195 kts | 245° |
| 2026-04-20 15:03 | 51.49332 | 7.53930 | 3213 ft | 212 kts | 244° |
| 2026-04-20 15:03 | 51.48552 | 7.51772 | 3678 ft | 233 kts | 243° |
| 2026-04-20 15:03 | 51.47700 | 7.49438 | 4119 ft | 252 kts | 243° |
| 2026-04-20 15:04 | 51.47007 | 7.46795 | 4518 ft | 261 kts | 263° |
| 2026-04-20 15:04 | 51.47120 | 7.43944 | 5252 ft | 258 kts | 290° |
| 2026-04-20 15:04 | 51.48032 | 7.41506 | 5976 ft | 257 kts | 316° |
| 2026-04-20 15:04 | 51.49523 | 7.40042 | 6740 ft | 256 kts | 343° |
| 2026-04-20 15:05 | 51.51298 | 7.39466 | 7439 ft | 260 kts | 349° |
| 2026-04-20 15:05 | 51.53062 | 7.38793 | 8183 ft | 262 kts | 346° |
| 2026-04-20 15:05 | 51.54897 | 7.38425 | 8716 ft | 270 kts | 3° |
| 2026-04-20 15:05 | 51.56734 | 7.39110 | 9397 ft | 275 kts | 25° |
| 2026-04-20 15:06 | 51.58273 | 7.40891 | 10242 ft | 272 kts | 42° |
| 2026-04-20 15:06 | 51.59704 | 7.42959 | 10680 ft | 285 kts | 42° |
| 2026-04-20 15:06 | 51.61241 | 7.45147 | 10896 ft | 305 kts | 41° |
| 2026-04-20 15:06 | 51.62879 | 7.47450 | 11250 ft | 318 kts | 41° |
| 2026-04-20 15:07 | 51.64566 | 7.49811 | 11763 ft | 325 kts | 41° |
| 2026-04-20 15:07 | 51.66286 | 7.52215 | 12352 ft | 329 kts | 41° |
| 2026-04-20 15:07 | 51.68014 | 7.54631 | 13099 ft | 329 kts | 42° |
| 2026-04-20 15:07 | 51.69757 | 7.57072 | 13603 ft | 336 kts | 42° |
| 2026-04-20 15:08 | 51.71519 | 7.59546 | 14286 ft | 336 kts | 42° |
| 2026-04-20 15:08 | 51.73293 | 7.62033 | 14827 ft | 340 kts | 42° |
| 2026-04-20 15:08 | 51.75097 | 7.64563 | 15348 ft | 344 kts | 43° |
| 2026-04-20 15:08 | 51.76908 | 7.67104 | 15918 ft | 347 kts | 43° |
| 2026-04-20 15:09 | 51.78743 | 7.69684 | 16422 ft | 352 kts | 43° |
| 2026-04-20 15:09 | 51.80596 | 7.72292 | 16979 ft | 355 kts | 43° |
| 2026-04-20 15:09 | 51.82462 | 7.74921 | 17502 ft | 358 kts | 44° |
| 2026-04-20 15:09 | 51.84340 | 7.77572 | 18037 ft | 361 kts | 44° |
| 2026-04-20 15:10 | 51.86242 | 7.80255 | 18583 ft | 365 kts | 44° |
| 2026-04-20 15:10 | 51.88156 | 7.82959 | 19183 ft | 364 kts | 44° |
| 2026-04-20 15:10 | 51.90042 | 7.85628 | 19642 ft | 367 kts | 44° |
| 2026-04-20 15:10 | 51.91971 | 7.88364 | 20104 ft | 371 kts | 44° |
| 2026-04-20 15:11 | 51.93942 | 7.91164 | 20603 ft | 374 kts | 44° |
| 2026-04-20 15:11 | 51.95877 | 7.93918 | 21069 ft | 377 kts | 44° |
| 2026-04-20 15:11 | 51.97855 | 7.96736 | 21548 ft | 380 kts | 44° |
| 2026-04-20 15:11 | 51.99874 | 7.99617 | 22070 ft | 383 kts | 44° |
| 2026-04-20 15:12 | 52.01858 | 8.02450 | 22570 ft | 386 kts | 44° |
| 2026-04-20 15:12 | 52.03880 | 8.05343 | 23055 ft | 390 kts | 44° |
| 2026-04-20 15:12 | 52.05925 | 8.08271 | 23198 ft | 395 kts | 44° |
| 2026-04-20 15:12 | 52.08018 | 8.11274 | 23202 ft | 405 kts | 44° |
| 2026-04-20 15:13 | 52.10131 | 8.14307 | 23206 ft | 404 kts | 44° |
| 2026-04-20 15:13 | 52.12235 | 8.17327 | 23202 ft | 404 kts | 44° |
| 2026-04-20 15:13 | 52.14341 | 8.20356 | 23201 ft | 404 kts | 44° |
| 2026-04-20 15:13 | 52.16443 | 8.23385 | 23202 ft | 404 kts | 44° |
| 2026-04-20 15:14 | 52.18550 | 8.26413 | 23199 ft | 404 kts | 43° |
| 2026-04-20 15:14 | 52.20815 | 8.29144 | 23200 ft | 407 kts | 36° |
| 2026-04-20 15:14 | 52.23285 | 8.31406 | 23183 ft | 409 kts | 30° |
| 2026-04-20 15:14 | 52.25803 | 8.33557 | 23192 ft | 407 kts | 31° |
| 2026-04-20 15:15 | 52.28307 | 8.35729 | 23197 ft | 407 kts | 31° |
| 2026-04-20 15:15 | 52.30803 | 8.37908 | 23199 ft | 407 kts | 31° |
| 2026-04-20 15:15 | 52.33302 | 8.40093 | 23199 ft | 407 kts | 31° |
| 2026-04-20 15:15 | 52.35800 | 8.42278 | 23201 ft | 407 kts | 31° |
| 2026-04-20 15:16 | 52.38300 | 8.44465 | 23191 ft | 407 kts | 31° |
| 2026-04-20 15:16 | 52.40794 | 8.46650 | 23192 ft | 407 kts | 30° |
| 2026-04-20 15:16 | 52.43280 | 8.48830 | 23192 ft | 404 kts | 30° |
| 2026-04-20 15:16 | 52.45760 | 8.51007 | 23192 ft | 405 kts | 30° |
| 2026-04-20 15:17 | 52.48231 | 8.53179 | 23186 ft | 402 kts | 30° |
| 2026-04-20 15:17 | 52.50698 | 8.55349 | 23186 ft | 402 kts | 30° |
| 2026-04-20 15:17 | 52.53166 | 8.57523 | 23186 ft | 403 kts | 30° |
| 2026-04-20 15:17 | 52.55633 | 8.59698 | 23181 ft | 403 kts | 30° |
| 2026-04-20 15:18 | 52.58099 | 8.61877 | 23186 ft | 403 kts | 30° |
| 2026-04-20 15:18 | 52.60567 | 8.64060 | 23177 ft | 402 kts | 30° |
| 2026-04-20 15:18 | 52.63033 | 8.66244 | 23174 ft | 403 kts | 30° |
| 2026-04-20 15:18 | 52.65499 | 8.68430 | 23167 ft | 403 kts | 30° |
| 2026-04-20 15:19 | 52.67963 | 8.70617 | 23168 ft | 402 kts | 30° |
| 2026-04-20 15:19 | 52.70422 | 8.72805 | 23162 ft | 400 kts | 30° |
| 2026-04-20 15:19 | 52.72868 | 8.74982 | 23169 ft | 399 kts | 30° |
| 2026-04-20 15:19 | 52.75311 | 8.77161 | 23158 ft | 400 kts | 30° |
| 2026-04-20 15:20 | 52.77737 | 8.79415 | 23162 ft | 399 kts | 34° |
| 2026-04-20 15:20 | 52.80047 | 8.81958 | 23162 ft | 399 kts | 35° |
| 2026-04-20 15:20 | 52.82353 | 8.84485 | 22953 ft | 397 kts | 35° |
| 2026-04-20 15:20 | 52.84662 | 8.87002 | 22237 ft | 400 kts | 35° |
| 2026-04-20 15:21 | 52.87001 | 8.89552 | 21258 ft | 405 kts | 35° |
| 2026-04-20 15:21 | 52.89358 | 8.92127 | 20317 ft | 406 kts | 35° |
| 2026-04-20 15:21 | 52.91706 | 8.94697 | 19519 ft | 402 kts | 34° |
| 2026-04-20 15:21 | 52.94017 | 8.97232 | 18804 ft | 396 kts | 34° |
| 2026-04-20 15:22 | 52.96287 | 8.99726 | 17772 ft | 387 kts | 34° |
| 2026-04-20 15:22 | 52.98517 | 9.02179 | 16547 ft | 382 kts | 34° |
| 2026-04-20 15:22 | 53.00698 | 9.04581 | 15674 ft | 369 kts | 35° |
| 2026-04-20 15:22 | 53.02741 | 9.06832 | 15122 ft | 350 kts | 35° |
| 2026-04-20 15:23 | 53.04133 | 9.08368 | 14665 ft | 340 kts | 35° |
| 2026-04-20 15:23 | 53.05801 | 9.10212 | 14109 ft | 331 kts | 35° |
| 2026-04-20 15:23 | 53.07715 | 9.12331 | 13366 ft | 330 kts | 35° |
| 2026-04-20 15:23 | 53.09604 | 9.14424 | 12786 ft | 324 kts | 35° |
| 2026-04-20 15:24 | 53.11466 | 9.16488 | 12168 ft | 319 kts | 35° |
| 2026-04-20 15:24 | 53.13303 | 9.18527 | 11542 ft | 315 kts | 35° |
| 2026-04-20 15:24 | 53.15117 | 9.20542 | 10940 ft | 311 kts | 36° |
| 2026-04-20 15:24 | 53.16906 | 9.22531 | 10403 ft | 307 kts | 36° |
| 2026-04-20 15:25 | 53.18632 | 9.24447 | 10233 ft | 289 kts | 36° |
| 2026-04-20 15:25 | 53.20266 | 9.26264 | 9918 ft | 277 kts | 36° |
| 2026-04-20 15:25 | 53.21837 | 9.28018 | 9620 ft | 265 kts | 36° |
| 2026-04-20 15:25 | 53.23376 | 9.29740 | 9485 ft | 269 kts | 37° |
| 2026-04-20 15:26 | 53.24932 | 9.31486 | 9361 ft | 269 kts | 36° |
| 2026-04-20 15:26 | 53.26485 | 9.33228 | 9013 ft | 269 kts | 36° |
| 2026-04-20 15:26 | 53.28025 | 9.34952 | 8616 ft | 263 kts | 36° |
| 2026-04-20 15:26 | 53.29520 | 9.36624 | 8229 ft | 254 kts | 37° |
| 2026-04-20 15:27 | 53.30963 | 9.38239 | 7838 ft | 245 kts | 36° |
| 2026-04-20 15:27 | 53.32333 | 9.39773 | 7477 ft | 236 kts | 37° |
| 2026-04-20 15:27 | 53.33744 | 9.41364 | 7118 ft | 259 kts | 37° |
| 2026-04-20 15:27 | 53.35210 | 9.43222 | 6725 ft | 260 kts | 44° |
| 2026-04-20 15:28 | 53.36399 | 9.45380 | 6349 ft | 252 kts | 52° |
| 2026-04-20 15:28 | 53.37494 | 9.47624 | 5939 ft | 246 kts | 52° |
| 2026-04-20 15:28 | 53.38583 | 9.49818 | 5555 ft | 248 kts | 51° |
| 2026-04-20 15:28 | 53.39702 | 9.52051 | 5176 ft | 249 kts | 51° |
| 2026-04-20 15:29 | 53.40800 | 9.54233 | 4778 ft | 239 kts | 51° |
| 2026-04-20 15:29 | 53.41853 | 9.56313 | 4385 ft | 230 kts | 51° |
| 2026-04-20 15:29 | 53.42871 | 9.58330 | 4052 ft | 221 kts | 51° |
| 2026-04-20 15:29 | 53.43828 | 9.60225 | 3970 ft | 205 kts | 50° |
| 2026-04-20 15:30 | 53.44810 | 9.62044 | 3968 ft | 214 kts | 50° |
| 2026-04-20 15:30 | 53.45754 | 9.63931 | 3969 ft | 210 kts | 52° |
| 2026-04-20 15:30 | 53.46689 | 9.65810 | 3969 ft | 210 kts | 51° |
| 2026-04-20 15:30 | 53.47621 | 9.67680 | 3968 ft | 208 kts | 52° |
| 2026-04-20 15:31 | 53.48552 | 9.69562 | 3968 ft | 210 kts | 51° |
| 2026-04-20 15:31 | 53.49477 | 9.71418 | 3966 ft | 204 kts | 51° |
| 2026-04-20 15:31 | 53.50379 | 9.73238 | 3732 ft | 202 kts | 52° |
| 2026-04-20 15:31 | 53.51255 | 9.75000 | 3463 ft | 190 kts | 52° |
| 2026-04-20 15:32 | 53.52079 | 9.76664 | 3198 ft | 181 kts | 52° |
| 2026-04-20 15:32 | 53.52865 | 9.78250 | 2964 ft | 172 kts | 52° |
| 2026-04-20 15:32 | 53.53605 | 9.79743 | 2723 ft | 162 kts | 51° |
| 2026-04-20 15:32 | 53.54310 | 9.81169 | 2524 ft | 154 kts | 51° |
| 2026-04-20 15:33 | 53.54971 | 9.82501 | 2314 ft | 141 kts | 50° |
| 2026-04-20 15:33 | 53.55565 | 9.83703 | 2115 ft | 126 kts | 50° |
| 2026-04-20 15:33 | 53.56095 | 9.84774 | 1939 ft | 112 kts | 49° |
| 2026-04-20 15:33 | 53.56618 | 9.85830 | 1790 ft | 119 kts | 49° |
| 2026-04-20 15:34 | 53.57130 | 9.86868 | 1653 ft | 117 kts | 48° |
| 2026-04-20 15:34 | 53.57663 | 9.87976 | 1495 ft | 121 kts | 49° |
| 2026-04-20 15:34 | 53.58166 | 9.89078 | 1225 ft | 115 kts | 50° |
| 2026-04-20 15:34 | 53.58672 | 9.90121 | 1093 ft | 115 kts | 46° |
| 2026-04-20 15:35 | 53.59202 | 9.91087 | 928 ft | 112 kts | 47° |
| 2026-04-20 15:35 | 53.59728 | 9.92069 | 754 ft | 111 kts | 50° |
| 2026-04-20 15:35 | 53.60214 | 9.93141 | 602 ft | 117 kts | 53° |
| 2026-04-20 15:35 | 53.60725 | 9.94188 | 428 ft | 119 kts | 51° |
| 2026-04-20 15:36 | 53.61270 | 9.95244 | 269 ft | 116 kts | 49° |
| 2026-04-20 15:36 | 53.61797 | 9.96298 | 217 ft | 133 kts | 51° |
| 2026-04-20 15:36 | 53.62431 | 9.97639 | 638 ft | 158 kts | 53° |
| 2026-04-20 15:36 | 53.63120 | 9.99010 | 1705 ft | 151 kts | 49° |
| 2026-04-20 15:37 | 53.63865 | 10.00353 | 2695 ft | 162 kts | 48° |
| 2026-04-20 15:37 | 53.64662 | 10.01759 | 3521 ft | 176 kts | 48° |
| 2026-04-20 15:37 | 53.65586 | 10.03385 | 3914 ft | 210 kts | 48° |
| 2026-04-20 15:37 | 53.66625 | 10.05210 | 3986 ft | 214 kts | 48° |
| 2026-04-20 15:38 | 53.67616 | 10.06937 | 3987 ft | 196 kts | 47° |
| 2026-04-20 15:38 | 53.68549 | 10.08473 | 3982 ft | 181 kts | 39° |
| 2026-04-20 15:38 | 53.69711 | 10.09216 | 3792 ft | 186 kts | 10° |
| 2026-04-20 15:38 | 53.71024 | 10.08752 | 3352 ft | 206 kts | 338° |
| 2026-04-20 15:39 | 53.72097 | 10.07116 | 3082 ft | 214 kts | 310° |
| 2026-04-20 15:39 | 53.72693 | 10.04686 | 3148 ft | 243 kts | 283° |
| 2026-04-20 15:39 | 53.72854 | 10.01671 | 3587 ft | 268 kts | 274° |
| 2026-04-20 15:39 | 53.72881 | 9.98639 | 3955 ft | 249 kts | 274° |
| 2026-04-20 15:40 | 53.72995 | 9.95706 | 3995 ft | 253 kts | 278° |
| 2026-04-20 15:40 | 53.72858 | 9.92753 | 4000 ft | 255 kts | 252° |
| 2026-04-20 15:40 | 53.71981 | 9.90193 | 3996 ft | 252 kts | 227° |
| 2026-04-20 15:40 | 53.71154 | 9.88759 | 3992 ft | 252 kts | 220° |
| 2026-04-20 15:41 | 53.69866 | 9.86782 | 4001 ft | 251 kts | 219° |
| 2026-04-20 15:41 | 53.68612 | 9.84800 | 3998 ft | 251 kts | 222° |
| 2026-04-20 15:41 | 53.67411 | 9.82737 | 3994 ft | 248 kts | 224° |
| 2026-04-20 15:41 | 53.66218 | 9.80561 | 3996 ft | 253 kts | 226° |
| 2026-04-20 15:42 | 53.65048 | 9.78357 | 3997 ft | 254 kts | 226° |
| 2026-04-20 15:42 | 53.63884 | 9.76133 | 3995 ft | 250 kts | 227° |
| 2026-04-20 15:42 | 53.62757 | 9.73976 | 3996 ft | 246 kts | 227° |
| 2026-04-20 15:42 | 53.61598 | 9.71770 | 4004 ft | 251 kts | 227° |
| 2026-04-20 15:43 | 53.60455 | 9.69600 | 3998 ft | 249 kts | 227° |
| 2026-04-20 15:43 | 53.59292 | 9.67393 | 4000 ft | 253 kts | 226° |
| 2026-04-20 15:43 | 53.58136 | 9.65206 | 3988 ft | 246 kts | 226° |
| 2026-04-20 15:43 | 53.56986 | 9.63035 | 3993 ft | 252 kts | 226° |
| 2026-04-20 15:44 | 53.55818 | 9.60839 | 3994 ft | 251 kts | 226° |
| 2026-04-20 15:44 | 53.54661 | 9.58662 | 3989 ft | 251 kts | 227° |
| 2026-04-20 15:44 | 53.53498 | 9.56471 | 3988 ft | 249 kts | 227° |
| 2026-04-20 15:44 | 53.52345 | 9.54304 | 3984 ft | 250 kts | 227° |
| 2026-04-20 15:45 | 53.51175 | 9.52100 | 3985 ft | 252 kts | 226° |
| 2026-04-20 15:45 | 53.50028 | 9.49948 | 3974 ft | 240 kts | 226° |
| 2026-04-20 15:45 | 53.48940 | 9.47902 | 3980 ft | 233 kts | 226° |
| 2026-04-20 15:45 | 53.47863 | 9.45892 | 3979 ft | 229 kts | 225° |
| 2026-04-20 15:46 | 53.46586 | 9.44418 | 4002 ft | 223 kts | 195° |
| 2026-04-20 15:46 | 53.45082 | 9.44220 | 4190 ft | 215 kts | 160° |
| 2026-04-20 15:46 | 53.43808 | 9.45378 | 3957 ft | 203 kts | 127° |
| 2026-04-20 15:46 | 53.43165 | 9.47269 | 3950 ft | 176 kts | 102° |
| 2026-04-20 15:47 | 53.43034 | 9.49277 | 3951 ft | 175 kts | 83° |
| 2026-04-20 15:47 | 53.43220 | 9.51290 | 3948 ft | 177 kts | 79° |
| 2026-04-20 15:47 | 53.43377 | 9.53324 | 3948 ft | 176 kts | 82° |
| 2026-04-20 15:47 | 53.43493 | 9.55379 | 3948 ft | 175 kts | 83° |
| 2026-04-20 15:48 | 53.43589 | 9.57390 | 3952 ft | 175 kts | 83° |
| 2026-04-20 15:48 | 53.43834 | 9.59358 | 3979 ft | 173 kts | 60° |
| 2026-04-20 15:48 | 53.44552 | 9.61026 | 3991 ft | 177 kts | 53° |
| 2026-04-20 15:48 | 53.45321 | 9.62618 | 3988 ft | 176 kts | 52° |
| 2026-04-20 15:49 | 53.46088 | 9.64202 | 3991 ft | 175 kts | 52° |
| 2026-04-20 15:49 | 53.46853 | 9.65776 | 3992 ft | 173 kts | 52° |
| 2026-04-20 15:49 | 53.47623 | 9.67364 | 3995 ft | 176 kts | 52° |
| 2026-04-20 15:49 | 53.48398 | 9.68963 | 3995 ft | 175 kts | 52° |
| 2026-04-20 15:50 | 53.49133 | 9.70471 | 3983 ft | 159 kts | 52° |
| 2026-04-20 15:50 | 53.49827 | 9.71894 | 3907 ft | 159 kts | 52° |
| 2026-04-20 15:50 | 53.50514 | 9.73308 | 3703 ft | 157 kts | 52° |
| 2026-04-20 15:50 | 53.51206 | 9.74724 | 3490 ft | 158 kts | 53° |
| 2026-04-20 15:51 | 53.51903 | 9.76163 | 3276 ft | 158 kts | 52° |
| 2026-04-20 15:51 | 53.52596 | 9.77585 | 3055 ft | 156 kts | 52° |
| 2026-04-20 15:51 | 53.53257 | 9.79001 | 2842 ft | 153 kts | 54° |
| 2026-04-20 15:51 | 53.53920 | 9.80378 | 2639 ft | 149 kts | 51° |
| 2026-04-20 15:52 | 53.54568 | 9.81686 | 2438 ft | 142 kts | 51° |
| 2026-04-20 15:52 | 53.55169 | 9.82900 | 2241 ft | 127 kts | 50° |
| 2026-04-20 15:52 | 53.55701 | 9.83976 | 2072 ft | 115 kts | 50° |
| 2026-04-20 15:53 | 53.56759 | 9.86116 | 1764 ft | 121 kts | 49° |
| 2026-04-20 15:53 | 53.57285 | 9.87175 | 1568 ft | 116 kts | 49° |
| 2026-04-20 15:53 | 53.57809 | 9.88237 | 1420 ft | 116 kts | 49° |
| 2026-04-20 15:53 | 53.58327 | 9.89287 | 1250 ft | 115 kts | 48° |
| 2026-04-20 15:54 | 53.58852 | 9.90331 | 1074 ft | 118 kts | 50° |
| 2026-04-20 15:54 | 53.59357 | 9.91367 | 900 ft | 112 kts | 51° |
| 2026-04-20 15:54 | 53.59889 | 9.92454 | 745 ft | 126 kts | 51° |
| 2026-04-20 15:54 | 53.60421 | 9.93518 | 582 ft | 112 kts | 50° |
| 2026-04-20 15:55 | 53.60919 | 9.94509 | 424 ft | 113 kts | 49° |
| 2026-04-20 15:55 | 53.61426 | 9.95581 | 265 ft | 114 kts | 50° |
| 2026-04-20 15:55 | 53.61984 | 9.96686 | 96 ft | 134 kts | 50° |
| 2026-04-20 15:55 | 53.62535 | 9.97796 | 47 ft | 99 kts | 50° |
| 2026-04-20 15:56 | 53.62803 | 9.98348 | 50 ft | 40 kts | 51° |
| 2026-04-20 15:56 | 53.62974 | 9.98699 | 49 ft | 36 kts | 49° |
| 2026-04-20 15:56 | 53.63086 | 9.99016 | 48 ft | 14 kts | 76° |
| 2026-04-20 15:56 | 53.63090 | 9.99125 | 50 ft | 9 kts | 89° |
| 2026-04-20 15:57 | 53.63088 | 9.99238 | 50 ft | 10 kts | 92° |
| 2026-04-20 15:57 | 53.63088 | 9.99346 | 50 ft | 0 kts | 81° |
| 2026-04-20 15:58 | 53.63089 | 9.99349 | 51 ft | 2 kts | 81° |
| 2026-04-20 15:58 | 53.63105 | 9.99417 | 49 ft | 10 kts | 61° |
| 2026-04-20 15:58 | 53.63148 | 9.99518 | 49 ft | 11 kts | 53° |
| 2026-04-20 15:59 | 53.63199 | 9.99625 | 49 ft | 12 kts | 50° |
| 2026-04-20 15:59 | 53.63209 | 9.99740 | 46 ft | 9 kts | 111° |
| 2026-04-20 15:59 | 53.63160 | 9.99817 | 47 ft | 10 kts | 151° |
| 2026-04-20 15:59 | 53.63093 | 9.99875 | 48 ft | 10 kts | 152° |
| 2026-04-20 16:00 | 53.63034 | 9.99927 | 50 ft | 8 kts | 153° |
| 2026-04-20 16:00 | 53.63021 | 9.99937 | 47 ft | 0 kts | 154° |
| 2026-04-20 16:00 | 53.62995 | 9.99959 | 46 ft | 7 kts | 152° |
| 2026-04-20 16:00 | 53.62961 | 10.00026 | 50 ft | 8 kts | 109° |
| 2026-04-20 16:01 | 53.62982 | 10.00092 | 46 ft | 6 kts | 43° |
| 2026-04-20 16:01 | 53.63024 | 10.00136 | 50 ft | 8 kts | 32° |
| 2026-04-20 16:01 | 53.63056 | 10.00203 | 51 ft | 7 kts | 72° |
| 2026-04-20 16:01 | 53.63039 | 10.00276 | 46 ft | 7 kts | 121° |
| 2026-04-20 16:02 | 53.63011 | 10.00352 | 51 ft | 6 kts | 122° |
| 2026-04-20 16:02 | 53.63008 | 10.00362 | 47 ft | 0 kts | 122° |